sensor_id;sensor_type;location;lat;lon;timestamp;pressure;altitude;pressure_sealevel;temperature;humidity
39265;BME280;42646;51.910;7.724;2022-07-12T00:00:06;101840.19;;;14.36;100.00
39265;BME280;42646;51.910;7.724;2022-07-12T00:02:35;101842.13;;;14.34;100.00
39265;BME280;42646;51.910;7.724;2022-07-12T00:05:03;101838.03;;;14.30;100.00
39265;BME280;42646;51.910;7.724;2022-07-12T00:07:31;101838.28;;;14.27;100.00
39265;BME280;42646;51.910;7.724;2022-07-12T00:09:59;101838.56;;;14.24;100.00
39265;BME280;42646;51.910;7.724;2022-07-12T00:12:26;101832.47;;;14.22;100.00
39265;BME280;42646;51.910;7.724;2022-07-12T00:14:54;101831.91;;;14.18;100.00
39265;BME280;42646;51.910;7.724;2022-07-12T00:17:23;101829.50;;;14.15;100.00
39265;BME280;42646;51.910;7.724;2022-07-12T00:19:50;101833.41;;;14.11;100.00
39265;BME280;42646;51.910;7.724;2022-07-12T00:22:18;101839.19;;;14.06;100.00
39265;BME280;42646;51.910;7.724;2022-07-12T00:24:46;101845.63;;;14.04;100.00
39265;BME280;42646;51.910;7.724;2022-07-12T00:27:13;101837.03;;;14.00;100.00
39265;BME280;42646;51.910;7.724;2022-07-12T00:29:41;101835.44;;;13.98;100.00
39265;BME280;42646;51.910;7.724;2022-07-12T00:32:09;101833.06;;;13.95;100.00
39265;BME280;42646;51.910;7.724;2022-07-12T00:34:38;101841.31;;;13.92;100.00
39265;BME280;42646;51.910;7.724;2022-07-12T00:37:05;101838.09;;;13.88;100.00
39265;BME280;42646;51.910;7.724;2022-07-12T00:39:33;101831.28;;;13.84;100.00
39265;BME280;42646;51.910;7.724;2022-07-12T00:42:00;101842.22;;;13.81;100.00
39265;BME280;42646;51.910;7.724;2022-07-12T00:44:28;101837.28;;;13.76;100.00
39265;BME280;42646;51.910;7.724;2022-07-12T00:46:57;101833.03;;;13.74;100.00
39265;BME280;42646;51.910;7.724;2022-07-12T00:49:25;101829.78;;;13.70;100.00
39265;BME280;42646;51.910;7.724;2022-07-12T00:51:54;101824.69;;;13.67;100.00
39265;BME280;42646;51.910;7.724;2022-07-12T00:54:22;101825.81;;;13.65;100.00
39265;BME280;42646;51.910;7.724;2022-07-12T00:56:50;101827.75;;;13.62;100.00
39265;BME280;42646;51.910;7.724;2022-07-12T00:59:17;101825.34;;;13.59;100.00
39265;BME280;42646;51.910;7.724;2022-07-12T01:01:45;101817.56;;;13.56;100.00
39265;BME280;42646;51.910;7.724;2022-07-12T01:04:13;101822.34;;;13.53;100.00
39265;BME280;42646;51.910;7.724;2022-07-12T01:06:45;101819.91;;;13.50;100.00
39265;BME280;42646;51.910;7.724;2022-07-12T01:09:14;101816.78;;;13.45;100.00
39265;BME280;42646;51.910;7.724;2022-07-12T01:11:42;101803.81;;;13.40;100.00
39265;BME280;42646;51.910;7.724;2022-07-12T01:14:10;101819.25;;;13.36;100.00
39265;BME280;42646;51.910;7.724;2022-07-12T01:16:40;101806.97;;;13.34;100.00
39265;BME280;42646;51.910;7.724;2022-07-12T01:19:08;101815.25;;;13.31;100.00
39265;BME280;42646;51.910;7.724;2022-07-12T01:21:43;101817.31;;;13.27;100.00
39265;BME280;42646;51.910;7.724;2022-07-12T01:24:15;101808.75;;;13.24;100.00
39265;BME280;42646;51.910;7.724;2022-07-12T01:26:43;101807.16;;;13.21;100.00
39265;BME280;42646;51.910;7.724;2022-07-12T01:29:11;101803.63;;;13.21;100.00
39265;BME280;42646;51.910;7.724;2022-07-12T01:31:40;101806.66;;;13.16;100.00
39265;BME280;42646;51.910;7.724;2022-07-12T01:34:08;101805.09;;;13.14;100.00
39265;BME280;42646;51.910;7.724;2022-07-12T01:36:36;101803.53;;;13.11;100.00
39265;BME280;42646;51.910;7.724;2022-07-12T01:39:05;101798.44;;;13.08;100.00
39265;BME280;42646;51.910;7.724;2022-07-12T01:41:34;101808.41;;;13.06;100.00
39265;BME280;42646;51.910;7.724;2022-07-12T01:44:02;101803.28;;;13.03;100.00
39265;BME280;42646;51.910;7.724;2022-07-12T01:46:30;101806.22;;;13.00;100.00
39265;BME280;42646;51.910;7.724;2022-07-12T01:48:57;101817.16;;;12.97;100.00
39265;BME280;42646;51.910;7.724;2022-07-12T01:51:25;101813.06;;;12.93;100.00
39265;BME280;42646;51.910;7.724;2022-07-12T01:53:52;101810.50;;;12.91;100.00
39265;BME280;42646;51.910;7.724;2022-07-12T01:56:20;101811.47;;;12.90;100.00
39265;BME280;42646;51.910;7.724;2022-07-12T01:58:49;101813.44;;;12.88;100.00
39265;BME280;42646;51.910;7.724;2022-07-12T02:01:17;101808.31;;;12.85;100.00
39265;BME280;42646;51.910;7.724;2022-07-12T02:03:45;101810.28;;;12.83;100.00
39265;BME280;42646;51.910;7.724;2022-07-12T02:06:14;101813.19;;;12.80;100.00
39265;BME280;42646;51.910;7.724;2022-07-12T02:08:42;101812.59;;;12.76;100.00
39265;BME280;42646;51.910;7.724;2022-07-12T02:11:10;101812.84;;;12.73;100.00
39265;BME280;42646;51.910;7.724;2022-07-12T02:13:38;101811.28;;;12.71;100.00
39265;BME280;42646;51.910;7.724;2022-07-12T02:16:07;101817.69;;;12.68;100.00
39265;BME280;42646;51.910;7.724;2022-07-12T02:18:35;101815.16;;;12.67;100.00
39265;BME280;42646;51.910;7.724;2022-07-12T02:21:03;101819.78;;;12.65;100.00
39265;BME280;42646;51.910;7.724;2022-07-12T02:23:31;101819.03;;;12.63;100.00
39265;BME280;42646;51.910;7.724;2022-07-12T02:25:58;101821.97;;;12.60;100.00
39265;BME280;42646;51.910;7.724;2022-07-12T02:28:26;101825.75;;;12.57;100.00
39265;BME280;42646;51.910;7.724;2022-07-12T02:30:54;101825.97;;;12.54;100.00
39265;BME280;42646;51.910;7.724;2022-07-12T02:33:23;101838.69;;;12.50;100.00
39265;BME280;42646;51.910;7.724;2022-07-12T02:35:51;101841.50;;;12.49;100.00
39265;BME280;42646;51.910;7.724;2022-07-12T02:38:18;101837.25;;;12.46;100.00
39265;BME280;42646;51.910;7.724;2022-07-12T02:40:46;101839.19;;;12.44;100.00
39265;BME280;42646;51.910;7.724;2022-07-12T02:43:20;101841.97;;;12.43;100.00
39265;BME280;42646;51.910;7.724;2022-07-12T02:45:48;101839.56;;;12.40;100.00
39265;BME280;42646;51.910;7.724;2022-07-12T02:48:16;101840.50;;;12.39;100.00
39265;BME280;42646;51.910;7.724;2022-07-12T02:50:45;101838.09;;;12.36;100.00
39265;BME280;42646;51.910;7.724;2022-07-12T02:53:12;101849.84;;;12.33;100.00
39265;BME280;42646;51.910;7.724;2022-07-12T02:55:40;101843.78;;;12.31;100.00
39265;BME280;42646;51.910;7.724;2022-07-12T02:58:08;101847.56;;;12.28;100.00
39265;BME280;42646;51.910;7.724;2022-07-12T03:00:35;101849.38;;;12.28;100.00
39265;BME280;42646;51.910;7.724;2022-07-12T03:03:03;101854.72;;;12.28;100.00
39265;BME280;42646;51.910;7.724;2022-07-12T03:05:34;101850.47;;;12.25;100.00
39265;BME280;42646;51.910;7.724;2022-07-12T03:08:04;101851.44;;;12.24;100.00
39265;BME280;42646;51.910;7.724;2022-07-12T03:10:32;101859.66;;;12.21;100.00
39265;BME280;42646;51.910;7.724;2022-07-12T03:13:00;101858.94;;;12.19;100.00
39265;BME280;42646;51.910;7.724;2022-07-12T03:15:27;101855.69;;;12.16;100.00
39265;BME280;42646;51.910;7.724;2022-07-12T03:17:55;101858.56;;;12.13;100.00
39265;BME280;42646;51.910;7.724;2022-07-12T03:20:23;101858.81;;;12.10;100.00
39265;BME280;42646;51.910;7.724;2022-07-12T03:22:51;101865.22;;;12.07;100.00
39265;BME280;42646;51.910;7.724;2022-07-12T03:25:22;101865.34;;;12.06;100.00
39265;BME280;42646;51.910;7.724;2022-07-12T03:27:50;101860.16;;;12.04;100.00
39265;BME280;42646;51.910;7.724;2022-07-12T03:30:18;101855.75;;;12.03;100.00
39265;BME280;42646;51.910;7.724;2022-07-12T03:32:45;101851.41;;;12.02;100.00
39265;BME280;42646;51.910;7.724;2022-07-12T03:35:13;101856.84;;;12.00;100.00
39265;BME280;42646;51.910;7.724;2022-07-12T03:37:43;101855.16;;;11.99;100.00
39265;BME280;42646;51.910;7.724;2022-07-12T03:40:12;101853.34;;;12.00;100.00
39265;BME280;42646;51.910;7.724;2022-07-12T03:42:42;101849.06;;;11.97;100.00
39265;BME280;42646;51.910;7.724;2022-07-12T03:45:11;101860.63;;;11.98;100.00
39265;BME280;42646;51.910;7.724;2022-07-12T03:47:39;101852.72;;;11.96;100.00
39265;BME280;42646;51.910;7.724;2022-07-12T03:50:08;101856.47;;;11.94;100.00
39265;BME280;42646;51.910;7.724;2022-07-12T03:52:39;101850.31;;;11.93;100.00
39265;BME280;42646;51.910;7.724;2022-07-12T03:55:07;101850.19;;;11.95;100.00
39265;BME280;42646;51.910;7.724;2022-07-12T03:57:35;101856.34;;;11.95;100.00
39265;BME280;42646;51.910;7.724;2022-07-12T04:00:06;101856.34;;;11.95;100.00
39265;BME280;42646;51.910;7.724;2022-07-12T04:02:37;101862.53;;;11.96;100.00
39265;BME280;42646;51.910;7.724;2022-07-12T04:05:07;101852.63;;;11.98;100.00
39265;BME280;42646;51.910;7.724;2022-07-12T04:07:35;101856.22;;;11.97;100.00
39265;BME280;42646;51.910;7.724;2022-07-12T04:10:04;101851.03;;;11.95;100.00
39265;BME280;42646;51.910;7.724;2022-07-12T04:12:32;101857.19;;;11.96;100.00
39265;BME280;42646;51.910;7.724;2022-07-12T04:15:00;101862.53;;;11.96;100.00
39265;BME280;42646;51.910;7.724;2022-07-12T04:17:29;101858.03;;;11.96;100.00
39265;BME280;42646;51.910;7.724;2022-07-12T04:19:57;101859.75;;;11.97;100.00
39265;BME280;42646;51.910;7.724;2022-07-12T04:22:24;101861.47;;;11.98;100.00
39265;BME280;42646;51.910;7.724;2022-07-12T04:24:52;101855.03;;;12.01;100.00
39265;BME280;42646;51.910;7.724;2022-07-12T04:27:20;101856.72;;;12.02;100.00
39265;BME280;42646;51.910;7.724;2022-07-12T04:29:47;101861.09;;;12.03;100.00
39265;BME280;42646;51.910;7.724;2022-07-12T04:32:15;101859.03;;;12.07;100.00
39265;BME280;42646;51.910;7.724;2022-07-12T04:34:44;101851.91;;;12.07;100.00
39265;BME280;42646;51.910;7.724;2022-07-12T04:37:12;101838.44;;;12.09;100.00
39265;BME280;42646;51.910;7.724;2022-07-12T04:39:39;101839.19;;;12.11;100.00
39265;BME280;42646;51.910;7.724;2022-07-12T04:42:07;101853.97;;;12.15;100.00
39265;BME280;42646;51.910;7.724;2022-07-12T04:44:35;101853.88;;;12.16;100.00
39265;BME280;42646;51.910;7.724;2022-07-12T04:47:03;101865.25;;;12.18;100.00
39265;BME280;42646;51.910;7.724;2022-07-12T04:49:31;101868.78;;;12.19;100.00
39265;BME280;42646;51.910;7.724;2022-07-12T04:52:00;101868.53;;;12.22;100.00
39265;BME280;42646;51.910;7.724;2022-07-12T04:54:28;101867.31;;;12.26;100.00
39265;BME280;42646;51.910;7.724;2022-07-12T04:56:56;101876.66;;;12.32;100.00
39265;BME280;42646;51.910;7.724;2022-07-12T04:59:23;101879.81;;;12.37;100.00
39265;BME280;42646;51.910;7.724;2022-07-12T05:01:51;101885.53;;;12.43;100.00
39265;BME280;42646;51.910;7.724;2022-07-12T05:04:19;101883.22;;;12.50;100.00
39265;BME280;42646;51.910;7.724;2022-07-12T05:06:47;101882.03;;;12.54;100.00
39265;BME280;42646;51.910;7.724;2022-07-12T05:09:16;101890.53;;;12.59;100.00
39265;BME280;42646;51.910;7.724;2022-07-12T05:11:44;101891.84;;;12.65;100.00
39265;BME280;42646;51.910;7.724;2022-07-12T05:14:12;101887.00;;;12.70;100.00
39265;BME280;42646;51.910;7.724;2022-07-12T05:16:39;101900.47;;;12.79;100.00
39265;BME280;42646;51.910;7.724;2022-07-12T05:19:07;101897.28;;;12.86;100.00
39265;BME280;42646;51.910;7.724;2022-07-12T05:21:35;101891.47;;;12.92;100.00
39265;BME280;42646;51.910;7.724;2022-07-12T05:24:02;101890.97;;;12.98;100.00
39265;BME280;42646;51.910;7.724;2022-07-12T05:26:32;101890.38;;;13.05;100.00
39265;BME280;42646;51.910;7.724;2022-07-12T05:28:59;101894.81;;;13.16;100.00
39265;BME280;42646;51.910;7.724;2022-07-12T05:31:27;101888.78;;;13.25;100.00
39265;BME280;42646;51.910;7.724;2022-07-12T05:33:55;101887.06;;;13.35;100.00
39265;BME280;42646;51.910;7.724;2022-07-12T05:36:23;101888.09;;;13.44;100.00
39265;BME280;42646;51.910;7.724;2022-07-12T05:38:51;101888.69;;;13.59;100.00
39265;BME280;42646;51.910;7.724;2022-07-12T05:41:19;101887.19;;;13.66;100.00
39265;BME280;42646;51.910;7.724;2022-07-12T05:43:48;101898.81;;;13.76;100.00
39265;BME280;42646;51.910;7.724;2022-07-12T05:46:15;101896.78;;;13.89;100.00
39265;BME280;42646;51.910;7.724;2022-07-12T05:48:43;101887.41;;;13.95;100.00
39265;BME280;42646;51.910;7.724;2022-07-12T05:51:11;101891.97;;;14.04;100.00
39265;BME280;42646;51.910;7.724;2022-07-12T05:53:56;101888.38;;;14.15;100.00
39265;BME280;42646;51.910;7.724;2022-07-12T05:56:23;101890.13;;;14.26;100.00
39265;BME280;42646;51.910;7.724;2022-07-12T05:58:53;101888.09;;;14.39;100.00
39265;BME280;42646;51.910;7.724;2022-07-12T06:01:20;101891.41;;;14.52;100.00
39265;BME280;42646;51.910;7.724;2022-07-12T06:03:48;101891.22;;;14.65;100.00
39265;BME280;42646;51.910;7.724;2022-07-12T06:06:15;101892.38;;;14.82;100.00
39265;BME280;42646;51.910;7.724;2022-07-12T06:08:43;101893.97;;;14.94;100.00
39265;BME280;42646;51.910;7.724;2022-07-12T06:11:11;101897.28;;;15.07;100.00
39265;BME280;42646;51.910;7.724;2022-07-12T06:13:38;101897.03;;;15.20;100.00
39265;BME280;42646;51.910;7.724;2022-07-12T06:16:08;101899.44;;;15.33;100.00
39265;BME280;42646;51.910;7.724;2022-07-12T06:18:36;101899.03;;;15.47;100.00
39265;BME280;42646;51.910;7.724;2022-07-12T06:21:04;101898.50;;;15.63;100.00
39265;BME280;42646;51.910;7.724;2022-07-12T06:23:32;101898.09;;;15.77;100.00
39265;BME280;42646;51.910;7.724;2022-07-12T06:26:00;101904.72;;;15.92;100.00
39265;BME280;42646;51.910;7.724;2022-07-12T06:28:28;101905.16;;;16.07;100.00
39265;BME280;42646;51.910;7.724;2022-07-12T06:30:55;101907.53;;;16.20;100.00
39265;BME280;42646;51.910;7.724;2022-07-12T06:33:24;101910.59;;;16.35;100.00
39265;BME280;42646;51.910;7.724;2022-07-12T06:35:52;101918.19;;;16.49;100.00
39265;BME280;42646;51.910;7.724;2022-07-12T06:38:20;101913.03;;;16.65;100.00
39265;BME280;42646;51.910;7.724;2022-07-12T06:40:47;101919.81;;;16.79;100.00
39265;BME280;42646;51.910;7.724;2022-07-12T06:43:15;101916.22;;;16.88;100.00
39265;BME280;42646;51.910;7.724;2022-07-12T06:45:43;101915.34;;;16.97;100.00
39265;BME280;42646;51.910;7.724;2022-07-12T06:48:11;101925.59;;;17.12;100.00
39265;BME280;42646;51.910;7.724;2022-07-12T06:50:40;101919.84;;;17.24;100.00
39265;BME280;42646;51.910;7.724;2022-07-12T06:53:07;101919.63;;;17.35;100.00
39265;BME280;42646;51.910;7.724;2022-07-12T06:55:35;101925.50;;;17.49;100.00
39265;BME280;42646;51.910;7.724;2022-07-12T06:58:03;101930.97;;;17.57;100.00
39265;BME280;42646;51.910;7.724;2022-07-12T07:00:31;101938.09;;;17.66;100.00
39265;BME280;42646;51.910;7.724;2022-07-12T07:02:59;101931.31;;;17.72;100.00
39265;BME280;42646;51.910;7.724;2022-07-12T07:05:27;101928.16;;;17.76;100.00
39265;BME280;42646;51.910;7.724;2022-07-12T07:07:56;101925.84;;;17.81;100.00
39265;BME280;42646;51.910;7.724;2022-07-12T07:10:24;101923.75;;;17.93;100.00
39265;BME280;42646;51.910;7.724;2022-07-12T07:12:51;101926.72;;;18.08;100.00
39265;BME280;42646;51.910;7.724;2022-07-12T07:15:20;101918.16;;;18.30;100.00
39265;BME280;42646;51.910;7.724;2022-07-12T07:17:47;101922.47;;;18.49;100.00
39265;BME280;42646;51.910;7.724;2022-07-12T07:20:16;101922.75;;;18.64;100.00
39265;BME280;42646;51.910;7.724;2022-07-12T07:22:44;101918.47;;;18.79;100.00
39265;BME280;42646;51.910;7.724;2022-07-12T07:25:13;101920.72;;;18.92;100.00
39265;BME280;42646;51.910;7.724;2022-07-12T07:27:42;101917.41;;;19.14;100.00
39265;BME280;42646;51.910;7.724;2022-07-12T07:30:11;101921.38;;;19.28;100.00
39265;BME280;42646;51.910;7.724;2022-07-12T07:32:56;101912.78;;;19.41;100.00
39265;BME280;42646;51.910;7.724;2022-07-12T07:35:24;101911.47;;;19.53;100.00
39265;BME280;42646;51.910;7.724;2022-07-12T07:37:51;101908.47;;;19.72;98.47
39265;BME280;42646;51.910;7.724;2022-07-12T07:40:21;101913.72;;;19.90;100.00
39265;BME280;42646;51.910;7.724;2022-07-12T07:42:49;101912.69;;;20.08;98.12
39265;BME280;42646;51.910;7.724;2022-07-12T07:45:17;101910.31;;;20.21;95.94
39265;BME280;42646;51.910;7.724;2022-07-12T07:47:46;101913.03;;;20.29;94.89
39265;BME280;42646;51.910;7.724;2022-07-12T07:50:34;101909.44;;;20.37;92.32
39265;BME280;42646;51.910;7.724;2022-07-12T07:53:02;101911.00;;;20.47;92.86
39265;BME280;42646;51.910;7.724;2022-07-12T07:55:32;101908.06;;;20.57;92.68
39265;BME280;42646;51.910;7.724;2022-07-12T07:58:01;101900.09;;;20.72;93.36
39265;BME280;42646;51.910;7.724;2022-07-12T08:00:29;101897.72;;;20.77;92.00
39265;BME280;42646;51.910;7.724;2022-07-12T08:02:57;101903.78;;;20.87;92.39
39265;BME280;42646;51.910;7.724;2022-07-12T08:05:25;101903.84;;;21.02;91.04
39265;BME280;42646;51.910;7.724;2022-07-12T08:07:54;101899.78;;;21.06;89.48
39265;BME280;42646;51.910;7.724;2022-07-12T08:10:22;101895.03;;;21.08;89.22
39265;BME280;42646;51.910;7.724;2022-07-12T08:12:51;101892.28;;;21.16;93.02
39265;BME280;42646;51.910;7.724;2022-07-12T08:15:19;101901.53;;;21.30;89.38
39265;BME280;42646;51.910;7.724;2022-07-12T08:17:47;101897.28;;;21.36;88.02
39265;BME280;42646;51.910;7.724;2022-07-12T08:20:20;101896.06;;;21.38;87.23
39265;BME280;42646;51.910;7.724;2022-07-12T08:23:09;101893.97;;;21.48;87.64
39265;BME280;42646;51.910;7.724;2022-07-12T08:25:37;101887.84;;;21.54;84.73
39265;BME280;42646;51.910;7.724;2022-07-12T08:28:06;101896.28;;;21.59;83.54
39265;BME280;42646;51.910;7.724;2022-07-12T08:30:34;101891.81;;;21.67;83.27
39265;BME280;42646;51.910;7.724;2022-07-12T08:33:08;101891.94;;;21.73;83.93
39265;BME280;42646;51.910;7.724;2022-07-12T08:35:36;101888.59;;;21.86;81.37
39265;BME280;42646;51.910;7.724;2022-07-12T08:38:03;101888.81;;;21.99;81.43
39265;BME280;42646;51.910;7.724;2022-07-12T08:40:31;101884.53;;;22.05;79.94
39265;BME280;42646;51.910;7.724;2022-07-12T08:42:59;101872.63;;;22.14;82.38
39265;BME280;42646;51.910;7.724;2022-07-12T08:45:28;101877.91;;;22.30;81.60
39265;BME280;42646;51.910;7.724;2022-07-12T08:47:56;101878.28;;;22.42;80.51
39265;BME280;42646;51.910;7.724;2022-07-12T08:50:24;101888.81;;;22.52;79.99
39265;BME280;42646;51.910;7.724;2022-07-12T08:52:54;101892.19;;;22.69;78.81
39265;BME280;42646;51.910;7.724;2022-07-12T08:55:23;101891.91;;;22.78;78.28
39265;BME280;42646;51.910;7.724;2022-07-12T08:57:53;101889.47;;;22.83;77.63
39265;BME280;42646;51.910;7.724;2022-07-12T09:00:22;101901.56;;;22.96;77.63
39265;BME280;42646;51.910;7.724;2022-07-12T09:02:52;101897.91;;;23.03;75.88
39265;BME280;42646;51.910;7.724;2022-07-12T09:05:22;101900.88;;;23.08;75.28
39265;BME280;42646;51.910;7.724;2022-07-12T09:07:50;101899.28;;;23.14;74.17
39265;BME280;42646;51.910;7.724;2022-07-12T09:10:19;101900.13;;;23.14;72.37
39265;BME280;42646;51.910;7.724;2022-07-12T09:12:48;101904.53;;;23.15;73.32
39265;BME280;42646;51.910;7.724;2022-07-12T09:15:18;101896.66;;;23.21;72.74
39265;BME280;42646;51.910;7.724;2022-07-12T09:17:56;101901.31;;;23.27;69.25
39265;BME280;42646;51.910;7.724;2022-07-12T09:20:25;101899.22;;;23.29;68.42
39265;BME280;42646;51.910;7.724;2022-07-12T09:22:55;101905.34;;;23.31;70.63
39265;BME280;42646;51.910;7.724;2022-07-12T09:25:23;101900.63;;;23.39;69.37
39265;BME280;42646;51.910;7.724;2022-07-12T09:27:52;101904.81;;;23.42;68.48
39265;BME280;42646;51.910;7.724;2022-07-12T09:30:21;101900.81;;;23.38;66.74
39265;BME280;42646;51.910;7.724;2022-07-12T09:32:54;101897.44;;;23.36;67.55
39265;BME280;42646;51.910;7.724;2022-07-12T09:35:43;101891.63;;;23.39;67.75
39265;BME280;42646;51.910;7.724;2022-07-12T09:38:28;101889.28;;;23.36;66.17
39265;BME280;42646;51.910;7.724;2022-07-12T09:40:56;101886.56;;;23.36;67.26
39265;BME280;42646;51.910;7.724;2022-07-12T09:43:26;101890.84;;;23.45;65.14
39265;BME280;42646;51.910;7.724;2022-07-12T09:45:54;101886.72;;;23.49;65.82
39265;BME280;42646;51.910;7.724;2022-07-12T09:48:22;101889.78;;;23.61;66.63
39265;BME280;42646;51.910;7.724;2022-07-12T09:50:51;101884.63;;;23.66;67.00
39265;BME280;42646;51.910;7.724;2022-07-12T09:53:21;101898.50;;;23.78;67.27
39265;BME280;42646;51.910;7.724;2022-07-12T09:55:52;101885.06;;;23.91;65.81
39265;BME280;42646;51.910;7.724;2022-07-12T09:58:27;101885.47;;;23.94;65.28
39265;BME280;42646;51.910;7.724;2022-07-12T10:00:55;101881.59;;;24.04;65.73
39265;BME280;42646;51.910;7.724;2022-07-12T10:03:28;101886.50;;;24.15;65.57
39265;BME280;42646;51.910;7.724;2022-07-12T10:06:00;101881.34;;;24.27;65.13
39265;BME280;42646;51.910;7.724;2022-07-12T10:08:30;101876.53;;;24.29;64.26
39265;BME280;42646;51.910;7.724;2022-07-12T10:10:57;101878.88;;;24.32;63.37
39265;BME280;42646;51.910;7.724;2022-07-12T10:13:26;101885.16;;;24.32;63.97
39265;BME280;42646;51.910;7.724;2022-07-12T10:15:58;101879.78;;;24.39;64.15
39265;BME280;42646;51.910;7.724;2022-07-12T10:18:27;101876.50;;;24.50;62.96
39265;BME280;42646;51.910;7.724;2022-07-12T10:20:55;101871.69;;;24.52;63.05
39265;BME280;42646;51.910;7.724;2022-07-12T10:23:33;101876.53;;;24.57;64.18
39265;BME280;42646;51.910;7.724;2022-07-12T10:26:24;101866.91;;;24.61;62.97
39265;BME280;42646;51.910;7.724;2022-07-12T10:29:00;101863.19;;;24.62;63.71
39265;BME280;42646;51.910;7.724;2022-07-12T10:31:30;101867.81;;;24.68;63.43
39265;BME280;42646;51.910;7.724;2022-07-12T10:34:08;101868.22;;;24.71;63.22
39265;BME280;42646;51.910;7.724;2022-07-12T10:40:15;101853.81;;;24.77;61.41
39265;BME280;42646;51.910;7.724;2022-07-12T10:43:13;101853.41;;;24.81;62.77
39265;BME280;42646;51.910;7.724;2022-07-12T10:45:43;101851.53;;;24.81;62.21
39265;BME280;42646;51.910;7.724;2022-07-12T10:48:20;101849.06;;;24.93;63.52
39265;BME280;42646;51.910;7.724;2022-07-12T10:50:55;101850.19;;;25.05;60.96
39265;BME280;42646;51.910;7.724;2022-07-12T10:53:25;101843.69;;;25.06;60.54
39265;BME280;42646;51.910;7.724;2022-07-12T10:56:27;101843.31;;;25.22;61.47
39265;BME280;42646;51.910;7.724;2022-07-12T10:58:59;101840.81;;;25.27;61.07
39265;BME280;42646;51.910;7.724;2022-07-12T11:01:28;101840.63;;;25.36;60.05
39265;BME280;42646;51.910;7.724;2022-07-12T11:04:03;101843.56;;;25.47;59.89
39265;BME280;42646;51.910;7.724;2022-07-12T11:06:34;101842.13;;;25.58;58.76
39265;BME280;42646;51.910;7.724;2022-07-12T11:09:03;101842.31;;;25.70;57.29
39265;BME280;42646;51.910;7.724;2022-07-12T11:11:34;101843.78;;;25.72;58.50
39265;BME280;42646;51.910;7.724;2022-07-12T11:14:02;101839.41;;;25.78;58.06
39265;BME280;42646;51.910;7.724;2022-07-12T11:16:31;101838.38;;;25.86;57.65
39265;BME280;42646;51.910;7.724;2022-07-12T11:18:59;101835.84;;;25.91;56.96
39265;BME280;42646;51.910;7.724;2022-07-12T11:21:27;101835.22;;;25.95;56.48
39265;BME280;42646;51.910;7.724;2022-07-12T11:23:54;101834.81;;;25.92;55.02
39265;BME280;42646;51.910;7.724;2022-07-12T11:26:22;101833.75;;;25.93;53.38
39265;BME280;42646;51.910;7.724;2022-07-12T11:28:57;101829.53;;;25.90;55.24
39265;BME280;42646;51.910;7.724;2022-07-12T11:31:25;101823.69;;;25.93;55.37
39265;BME280;42646;51.910;7.724;2022-07-12T11:33:53;101819.50;;;25.97;54.47
39265;BME280;42646;51.910;7.724;2022-07-12T11:36:25;101818.00;;;26.01;53.81
39265;BME280;42646;51.910;7.724;2022-07-12T11:38:53;101812.53;;;26.08;53.83
39265;BME280;42646;51.910;7.724;2022-07-12T11:41:20;101816.94;;;26.16;51.95
39265;BME280;42646;51.910;7.724;2022-07-12T11:43:51;101816.94;;;26.16;51.99
39265;BME280;42646;51.910;7.724;2022-07-12T11:46:19;101819.00;;;26.20;51.47
39265;BME280;42646;51.910;7.724;2022-07-12T11:48:47;101815.88;;;26.23;50.74
39265;BME280;42646;51.910;7.724;2022-07-12T11:51:14;101807.88;;;26.28;51.08
39265;BME280;42646;51.910;7.724;2022-07-12T11:53:42;101813.09;;;26.36;51.03
39265;BME280;42646;51.910;7.724;2022-07-12T11:56:10;101798.84;;;26.41;49.69
39265;BME280;42646;51.910;7.724;2022-07-12T11:58:38;101807.03;;;26.41;50.01
39265;BME280;42646;51.910;7.724;2022-07-12T12:01:11;101801.34;;;26.43;49.35
39265;BME280;42646;51.910;7.724;2022-07-12T12:03:43;101808.66;;;26.49;51.20
39265;BME280;42646;51.910;7.724;2022-07-12T12:06:11;101813.03;;;26.56;48.68
39265;BME280;42646;51.910;7.724;2022-07-12T12:08:39;101812.22;;;26.56;48.46
39265;BME280;42646;51.910;7.724;2022-07-12T12:11:07;101808.63;;;26.55;48.76
39265;BME280;42646;51.910;7.724;2022-07-12T12:13:35;101805.03;;;26.61;50.17
39265;BME280;42646;51.910;7.724;2022-07-12T12:16:04;101805.00;;;26.75;51.00
39265;BME280;42646;51.910;7.724;2022-07-12T12:18:35;101796.97;;;26.86;51.16
39265;BME280;42646;51.910;7.724;2022-07-12T12:21:05;101797.94;;;26.99;50.61
39265;BME280;42646;51.910;7.724;2022-07-12T12:23:33;101788.88;;;27.05;49.96
39265;BME280;42646;51.910;7.724;2022-07-12T12:26:13;101781.91;;;27.09;49.70
39265;BME280;42646;51.910;7.724;2022-07-12T12:28:46;101785.84;;;27.20;49.55
39265;BME280;42646;51.910;7.724;2022-07-12T12:31:15;101789.38;;;27.27;49.94
39265;BME280;42646;51.910;7.724;2022-07-12T12:33:46;101786.16;;;27.36;49.37
39265;BME280;42646;51.910;7.724;2022-07-12T12:36:16;101783.97;;;27.45;49.77
39265;BME280;42646;51.910;7.724;2022-07-12T12:38:45;101790.59;;;27.56;48.52
39265;BME280;42646;51.910;7.724;2022-07-12T12:41:13;101780.84;;;27.66;48.48
39265;BME280;42646;51.910;7.724;2022-07-12T12:43:41;101774.00;;;27.82;47.71
39265;BME280;42646;51.910;7.724;2022-07-12T12:46:09;101779.34;;;27.95;44.96
39265;BME280;42646;51.910;7.724;2022-07-12T12:48:47;101774.63;;;28.03;45.67
39265;BME280;42646;51.910;7.724;2022-07-12T12:51:15;101773.88;;;28.14;45.60
39265;BME280;42646;51.910;7.724;2022-07-12T12:53:43;101780.34;;;28.19;45.54
39265;BME280;42646;51.910;7.724;2022-07-12T12:56:12;101779.66;;;28.24;45.23